Terminal Aerodrome Forecast
Issued by NWS

Home | Current Version | Previous Version | Text Only | Print | Product List | Glossary On
Versions: 1 2 3 4 5 6 7 8 9 10 11 12 13 14 15 16 17 18 19 20 21
679
FTUS46 KPDT 131120
TAFYKM
TAF
KYKM 131120Z 1312/1412 VRB03KT 1/2SM FG OVC002
      TEMPO 1312/1314 VRB03KT 3SM BR OVC005
     FM131400 VRB03KT 3SM BR OVC005
     FM131700 VRB03KT 5SM BR SCT006 BKN150 OVC180
     FM131800 22006KT P6SM BKN090 OVC120
     FM132200 22007KT P6SM VCSH SCT050 BKN070
     FM132300 VRB03KT 6SM -RA BR OVC050=

USA.gov is the U.S. government's official web portal to all federal, state and local government web resources and services.